Main page
METAR-TAF:

METAR-TAF

Airports :

N'Djamena International Airport

N'Djamena, Chad

latitude: 12-08N, longitude: 015-02E, elevation: 295 m

Current weather observation

The report was made 33 minutes ago, at 00:00 UTC
Wind 7 kt from the North/Northeast
Temperature 27°C
Humidity 13%
Pressure 1005 hPa
Visibility 10 km or more
no clouds below 1500 m and no cumulonimbus

METAR: FTTJ 110000Z 03007KT CAVOK 27/M04 Q1005 NOSIG

Time: 01:33 (00:33 UTC)

Forecast

The report was made 1 hour and 33 minutes ago, at 23:00 UTC
Forecast valid from 11 at 00 UTC to 12 at 06 UTC
Wind 10 kt from the East/Northeast
Visibility: 8000 m

TAF: FTTJ 102300Z 1100/1206 06010KT 8000 NSC

Weather observations and forecasts of more than 4000 airports (METAR and TAF reports).

The available stations are represented by yellow and red dots on the map.

Hover mouse over dot to see the name of the station.

Then click to see weather observations and forecasts.

To change the map : click on the green buttons with a black cross to zoom in, on the green button with a dash to zoom out, or on the green arrows for adjacent maps.


METAR-TAF: